Time;durP1;ratioP1;P1;durP2;ratioP2;P2;SDS_P1;SDS_P2;PMS_P1;PMS_P2;Temp;Humidity;BMP_temperature;BMP_pressure;BME280_temperature;BME280_humidity;BME280_pressure;Samples;Min_cycle;Max_cycle;Signal;HPM_P1;HPM_P2
2022/07/19 00:01:01;;;;;;;7.23;3.43;;;20.00;92.60;;;;;;5013027;28;20573;-70
2022/07/19 00:03:28;;;;;;;12.43;3.40;;;20.00;92.70;;;;;;5015868;28;20507;-70
2022/07/19 00:05:54;;;;;;;22.90;4.17;;;20.00;92.80;;;;;;5015828;28;20988;-70
2022/07/19 00:08:21;;;;;;;7.17;3.50;;;20.00;92.60;;;;;;5027735;28;20506;-70
2022/07/19 00:10:47;;;;;;;5.67;3.03;;;20.00;92.50;;;;;;5020012;28;20424;-70
2022/07/19 00:13:14;;;;;;;7.50;3.50;;;20.00;92.50;;;;;;5013456;28;20462;-70
2022/07/19 00:15:41;;;;;;;13.73;4.00;;;19.90;92.60;;;;;;5012499;28;20458;-70
2022/07/19 00:18:09;;;;;;;7.33;3.13;;;19.90;92.70;;;;;;5017696;28;20505;-70
2022/07/19 00:20:35;;;;;;;4.30;3.20;;;19.90;92.60;;;;;;5025715;28;20488;-70
2022/07/19 00:23:02;;;;;;;4.50;3.03;;;19.90;92.70;;;;;;5014489;28;20425;-70
2022/07/19 00:25:28;;;;;;;5.77;3.37;;;19.90;92.80;;;;;;5019359;28;20541;-70
2022/07/19 00:27:55;;;;;;;9.30;3.13;;;19.90;93.00;;;;;;5019710;28;20945;-70
2022/07/19 00:30:22;;;;;;;6.70;3.50;;;19.80;93.10;;;;;;5014622;28;20504;-70
2022/07/19 00:32:48;;;;;;;7.73;2.97;;;19.80;93.10;;;;;;5013013;28;20503;-70
2022/07/19 00:35:17;;;;;;;7.73;3.37;;;19.70;92.90;;;;;;5017737;28;21017;-70
2022/07/19 00:37:44;;;;;;;4.43;3.07;;;19.70;93.00;;;;;;5012359;28;20505;-70
2022/07/19 00:40:12;;;;;;;3.37;2.70;;;19.70;93.00;;;;;;5023655;28;20457;-70
2022/07/19 00:42:39;;;;;;;4.37;2.80;;;19.60;92.90;;;;;;5020599;28;20470;-70
2022/07/19 00:45:06;;;;;;;3.90;2.87;;;19.60;92.90;;;;;;5019296;28;20517;-70
2022/07/19 00:47:33;;;;;;;5.90;2.87;;;19.50;92.90;;;;;;5016848;28;20876;-70
2022/07/19 00:50:00;;;;;;;5.57;3.90;;;19.60;93.20;;;;;;5021958;28;20424;-70
2022/07/19 00:52:30;;;;;;;5.53;3.60;;;19.50;93.30;;;;;;5017845;28;20450;-70
2022/07/19 00:54:57;;;;;;;3.80;2.90;;;19.50;93.20;;;;;;5019326;28;20509;-70
2022/07/19 00:57:24;;;;;;;4.60;3.07;;;19.40;93.00;;;;;;5016016;28;20534;-70
2022/07/19 00:59:54;;;;;;;5.50;2.70;;;19.40;92.90;;;;;;5013154;28;20541;-70
2022/07/19 01:02:21;;;;;;;7.10;2.60;;;19.40;92.90;;;;;;5013313;28;20425;-70
2022/07/19 01:04:48;;;;;;;6.60;2.80;;;19.40;92.80;;;;;;5016773;28;20544;-70
2022/07/19 01:07:15;;;;;;;5.90;3.40;;;19.30;92.80;;;;;;5019021;28;20445;-70
2022/07/19 01:09:43;;;;;;;4.10;3.00;;;19.40;93.00;;;;;;5019482;28;20503;-70
2022/07/19 01:12:10;;;;;;;3.63;3.30;;;19.30;92.90;;;;;;5017042;28;20504;-70
2022/07/19 01:14:37;;;;;;;3.93;2.90;;;19.40;93.00;;;;;;5017809;28;20832;-70
2022/07/19 01:17:03;;;;;;;4.60;2.83;;;19.30;93.10;;;;;;5016094;28;20474;-70
2022/07/19 01:19:30;;;;;;;4.50;2.93;;;19.30;93.10;;;;;;5023812;28;20452;-70
2022/07/19 01:21:59;;;;;;;5.47;2.90;;;19.20;93.10;;;;;;5026734;28;21008;-70
2022/07/19 01:24:26;;;;;;;9.20;3.00;;;19.20;93.20;;;;;;5025811;28;20860;-70
2022/07/19 01:26:53;;;;;;;4.63;2.87;;;19.20;93.40;;;;;;5026165;28;20473;-70
2022/07/19 01:29:19;;;;;;;7.00;3.10;;;19.10;93.30;;;;;;5027479;28;20453;-70
2022/07/19 01:31:46;;;;;;;5.43;3.17;;;19.00;93.40;;;;;;5017194;28;20856;-70
2022/07/19 01:34:13;;;;;;;4.27;3.43;;;18.90;93.50;;;;;;5018490;28;20454;-70
2022/07/19 01:36:39;;;;;;;5.03;2.97;;;18.90;93.70;;;;;;5020407;28;20543;-70
2022/07/19 01:39:07;;;;;;;6.60;3.10;;;18.80;94.00;;;;;;5016934;28;21020;-70
2022/07/19 01:41:34;;;;;;;5.67;4.10;;;18.70;94.40;;;;;;5015724;28;20482;-70
2022/07/19 01:44:00;;;;;;;4.00;3.00;;;18.70;94.60;;;;;;5023562;28;20478;-70
2022/07/19 01:46:27;;;;;;;4.87;3.40;;;18.60;94.70;;;;;;5016444;28;20998;-70
2022/07/19 01:48:54;;;;;;;3.57;2.83;;;18.60;94.60;;;;;;5016012;28;20442;-70
2022/07/19 01:51:20;;;;;;;4.70;2.80;;;18.50;94.50;;;;;;5015527;28;20454;-70
2022/07/19 01:53:47;;;;;;;5.27;2.93;;;18.50;94.50;;;;;;5017290;28;20520;-70
2022/07/19 01:56:15;;;;;;;3.40;3.10;;;18.50;94.60;;;;;;5030353;28;20456;-70
2022/07/19 01:58:42;;;;;;;2.83;2.63;;;18.50;94.70;;;;;;5022843;28;20897;-70
2022/07/19 02:01:09;;;;;;;7.13;3.07;;;18.50;95.00;;;;;;5030183;28;20478;-71
2022/07/19 02:03:35;;;;;;;7.73;3.23;;;18.40;94.90;;;;;;5021316;28;20450;-70
2022/07/19 02:06:02;;;;;;;3.43;3.10;;;18.40;95.20;;;;;;5018722;28;20492;-70
2022/07/19 02:08:29;;;;;;;13.33;3.33;;;18.40;95.40;;;;;;5018709;28;20455;-70
2022/07/19 02:10:55;;;;;;;4.13;3.40;;;18.30;95.60;;;;;;5015045;28;20500;-70
2022/07/19 02:13:23;;;;;;;3.63;3.27;;;18.30;95.60;;;;;;5015489;28;20458;-70
2022/07/19 02:15:50;;;;;;;4.43;3.60;;;18.30;95.70;;;;;;5021664;28;20466;-70
2022/07/19 02:18:17;;;;;;;4.83;3.30;;;18.20;95.70;;;;;;5022807;28;20458;-70
2022/07/19 02:20:44;;;;;;;7.53;3.40;;;18.20;95.90;;;;;;5015570;28;21009;-70
2022/07/19 02:23:10;;;;;;;4.23;3.07;;;18.10;96.30;;;;;;5014472;28;20459;-70
2022/07/19 02:25:37;;;;;;;5.13;3.47;;;18.00;96.60;;;;;;5023009;28;20552;-70
2022/07/19 02:28:04;;;;;;;3.87;3.43;;;17.80;96.90;;;;;;5029729;28;20979;-70
2022/07/19 02:30:32;;;;;;;7.33;3.37;;;17.80;97.30;;;;;;5023365;28;20450;-70
2022/07/19 02:32:59;;;;;;;5.13;3.40;;;17.60;97.70;;;;;;5028265;28;20435;-70
2022/07/19 02:35:25;;;;;;;9.30;3.80;;;17.50;98.10;;;;;;5014986;28;20492;-70
2022/07/19 02:37:52;;;;;;;3.93;3.53;;;17.40;98.50;;;;;;5015177;28;20425;-71
2022/07/19 02:40:19;;;;;;;10.33;3.60;;;17.40;98.80;;;;;;5014513;28;20491;-70
2022/07/19 02:42:45;;;;;;;14.43;3.70;;;17.30;98.90;;;;;;5021965;28;20424;-70
2022/07/19 02:45:12;;;;;;;6.30;3.67;;;17.40;99.20;;;;;;5013853;28;20460;-70
2022/07/19 02:47:40;;;;;;;6.73;3.87;;;17.40;99.30;;;;;;5015521;28;20449;-70
2022/07/19 02:50:07;;;;;;;4.53;3.50;;;17.40;99.30;;;;;;5014258;28;20436;-70
2022/07/19 02:52:34;;;;;;;7.17;4.60;;;17.40;99.40;;;;;;5015696;28;20432;-70
2022/07/19 02:55:00;;;;;;;7.13;3.90;;;17.40;99.60;;;;;;5015942;28;20424;-70
2022/07/19 02:57:27;;;;;;;5.83;4.00;;;17.40;99.60;;;;;;5021772;28;20870;-70
2022/07/19 02:59:54;;;;;;;9.70;3.90;;;17.40;99.90;;;;;;5014757;28;21015;-70
2022/07/19 03:02:20;;;;;;;7.33;4.20;;;17.40;99.90;;;;;;5014640;28;20460;-70
2022/07/19 03:04:48;;;;;;;8.03;4.00;;;17.40;99.90;;;;;;5019945;28;20507;-71
2022/07/19 03:07:15;;;;;;;6.50;4.37;;;17.40;99.90;;;;;;5015502;28;20507;-71
2022/07/19 03:09:42;;;;;;;4.53;3.63;;;17.40;99.90;;;;;;5012333;28;20432;-70
2022/07/19 03:12:09;;;;;;;10.03;4.37;;;17.40;99.90;;;;;;5020495;28;20460;-70
2022/07/19 03:14:35;;;;;;;8.13;3.93;;;17.40;99.90;;;;;;5025730;28;20424;-70
2022/07/19 03:17:02;;;;;;;4.90;3.47;;;17.40;99.90;;;;;;5026997;28;20451;-70
2022/07/19 03:19:29;;;;;;;14.20;3.80;;;17.40;99.90;;;;;;5015165;28;20475;-70
2022/07/19 03:21:57;;;;;;;4.83;4.17;;;17.40;99.90;;;;;;5021408;28;20853;-70
2022/07/19 03:24:24;;;;;;;8.53;3.70;;;17.40;99.90;;;;;;5025174;28;20428;-70
2022/07/19 03:26:50;;;;;;;4.77;4.17;;;17.40;99.90;;;;;;5017516;28;20552;-70
2022/07/19 03:29:17;;;;;;;7.60;3.70;;;17.40;99.90;;;;;;5016627;28;20428;-70
2022/07/19 03:31:44;;;;;;;11.60;3.90;;;17.40;99.90;;;;;;5014929;28;20424;-70
2022/07/19 03:34:10;;;;;;;8.53;4.40;;;17.40;99.90;;;;;;5015649;28;20483;-70
2022/07/19 03:36:37;;;;;;;11.10;4.20;;;17.40;99.90;;;;;;5015355;28;20456;-70
2022/07/19 03:39:06;;;;;;;6.43;3.10;;;17.40;99.90;;;;;;5013747;28;20517;-70
2022/07/19 03:41:32;;;;;;;7.37;4.10;;;17.40;99.90;;;;;;5012665;28;21407;-70
2022/07/19 03:43:59;;;;;;;5.70;4.77;;;17.40;99.90;;;;;;5023260;28;20450;-71
2022/07/19 03:46:28;;;;;;;8.20;4.60;;;17.40;99.90;;;;;;5024936;28;20464;-70
2022/07/19 03:48:54;;;;;;;4.03;3.60;;;17.40;99.90;;;;;;5024843;28;20432;-70
2022/07/19 03:51:21;;;;;;;15.60;3.80;;;17.50;99.90;;;;;;5010663;28;20490;-70
2022/07/19 03:53:48;;;;;;;7.43;4.10;;;17.50;99.90;;;;;;5021580;28;20453;-70
2022/07/19 03:56:17;;;;;;;10.10;4.00;;;17.50;99.90;;;;;;5013793;28;20452;-70
2022/07/19 03:58:44;;;;;;;5.10;4.27;;;17.50;99.90;;;;;;5026763;28;20450;-70
2022/07/19 04:01:11;;;;;;;8.10;3.90;;;17.50;99.90;;;;;;5014238;28;20439;-70
2022/07/19 04:03:38;;;;;;;5.27;3.63;;;17.50;99.90;;;;;;5016778;28;22039;-70
2022/07/19 04:06:06;;;;;;;7.27;4.00;;;17.50;99.90;;;;;;5013107;28;20461;-71
2022/07/19 04:08:32;;;;;;;10.57;4.20;;;17.50;99.90;;;;;;5015138;28;20483;-70
2022/07/19 04:10:59;;;;;;;14.33;4.17;;;17.50;99.90;;;;;;5018117;28;20423;-70
2022/07/19 04:13:27;;;;;;;7.40;3.90;;;17.50;99.90;;;;;;5011319;28;20429;-70
2022/07/19 04:15:54;;;;;;;10.27;4.83;;;17.50;99.90;;;;;;5018352;28;20435;-70
2022/07/19 04:18:21;;;;;;;6.43;4.43;;;17.40;99.90;;;;;;5024399;28;20446;-70
2022/07/19 04:20:47;;;;;;;8.50;4.80;;;17.40;99.90;;;;;;5010762;28;20429;-70
2022/07/19 04:23:14;;;;;;;7.60;4.23;;;17.30;99.90;;;;;;5010517;28;20849;-70
2022/07/19 04:25:41;;;;;;;6.10;5.23;;;17.30;99.90;;;;;;5014097;28;20514;-70
2022/07/19 04:28:08;;;;;;;13.20;5.40;;;17.20;99.90;;;;;;5024700;28;20457;-75
2022/07/19 04:30:36;;;;;;;15.87;4.77;;;17.20;99.90;;;;;;5015797;28;20424;-76
2022/07/19 04:33:02;;;;;;;4.90;3.70;;;17.20;99.90;;;;;;5006234;28;20424;-76
2022/07/19 04:35:29;;;;;;;13.07;4.13;;;17.30;99.90;;;;;;5016079;28;20429;-77
2022/07/19 04:37:56;;;;;;;4.53;3.93;;;17.40;99.90;;;;;;5005761;28;21221;-77
2022/07/19 04:40:22;;;;;;;10.13;4.33;;;17.50;99.90;;;;;;5012013;28;20537;-77
2022/07/19 04:42:49;;;;;;;16.87;4.23;;;17.60;99.90;;;;;;5017633;28;20425;-76
2022/07/19 04:45:16;;;;;;;7.00;3.60;;;17.70;99.90;;;;;;5020210;28;20476;-76
2022/07/19 04:47:44;;;;;;;6.70;3.77;;;17.80;99.90;;;;;;5011072;28;20523;-76
2022/07/19 04:50:11;;;;;;;4.47;3.50;;;17.90;99.90;;;;;;5025266;28;20454;-77
2022/07/19 04:52:38;;;;;;;4.87;4.07;;;18.00;99.90;;;;;;5029003;28;20454;-76
2022/07/19 04:55:05;;;;;;;6.40;3.80;;;18.10;99.90;;;;;;5020924;28;20425;-77
2022/07/19 04:57:32;;;;;;;3.70;3.40;;;18.20;99.90;;;;;;5017646;28;20502;-77
2022/07/19 04:59:59;;;;;;;11.43;4.07;;;18.30;99.90;;;;;;5017191;28;20520;-77
2022/07/19 05:02:25;;;;;;;7.23;4.10;;;18.40;99.90;;;;;;5026831;28;20485;-77
2022/07/19 05:04:53;;;;;;;4.77;4.00;;;18.60;99.90;;;;;;5011282;28;20446;-77
2022/07/19 05:07:20;;;;;;;9.60;4.03;;;18.70;99.90;;;;;;5016508;28;20465;-77
2022/07/19 05:09:46;;;;;;;10.00;3.87;;;18.90;99.90;;;;;;5017632;28;20428;-77
2022/07/19 05:12:13;;;;;;;8.30;3.87;;;19.00;99.90;;;;;;5021163;28;20461;-77
2022/07/19 05:14:40;;;;;;;9.40;3.70;;;19.10;99.90;;;;;;5024287;28;20526;-77
2022/07/19 05:17:06;;;;;;;5.50;3.30;;;19.30;99.90;;;;;;5029689;28;20440;-73
2022/07/19 05:19:33;;;;;;;8.77;3.50;;;19.30;99.90;;;;;;5017284;28;20846;-71
2022/07/19 05:22:01;;;;;;;6.07;3.90;;;19.40;99.90;;;;;;5015606;28;20997;-71
2022/07/19 05:24:27;;;;;;;10.13;4.83;;;19.50;99.90;;;;;;5017192;28;20449;-72
2022/07/19 05:26:54;;;;;;;6.40;4.10;;;19.60;99.90;;;;;;5019355;28;20493;-73
2022/07/19 05:29:21;;;;;;;9.80;4.03;;;19.60;99.90;;;;;;5013788;28;20458;-73
2022/07/19 05:31:48;;;;;;;6.27;3.77;;;19.70;99.90;;;;;;5011949;28;20984;-73
2022/07/19 05:34:14;;;;;;;6.37;3.63;;;19.80;99.90;;;;;;5013661;28;21012;-73
2022/07/19 05:36:41;;;;;;;6.17;3.60;;;20.00;99.90;;;;;;5013927;28;20478;-73
2022/07/19 05:39:09;;;;;;;9.60;3.67;;;20.10;99.90;;;;;;5014407;28;20605;-73
2022/07/19 05:41:36;;;;;;;11.80;4.17;;;20.30;99.90;;;;;;5014321;28;20481;-73
2022/07/19 05:44:03;;;;;;;7.73;4.10;;;20.40;99.90;;;;;;5013544;28;20450;-73
2022/07/19 05:46:29;;;;;;;5.80;4.43;;;20.70;99.90;;;;;;5013890;28;20540;-73
2022/07/19 05:48:56;;;;;;;8.93;4.57;;;20.90;99.90;;;;;;5014052;28;20450;-73
2022/07/19 05:51:22;;;;;;;10.53;3.93;;;21.00;99.90;;;;;;5013479;28;20425;-73
2022/07/19 05:53:49;;;;;;;6.17;4.03;;;21.10;99.90;;;;;;5013673;28;20521;-73
2022/07/19 05:56:17;;;;;;;10.60;4.50;;;21.30;99.90;;;;;;5013678;28;20470;-73
2022/07/19 05:58:44;;;;;;;4.70;3.70;;;21.40;99.90;;;;;;5013628;28;20512;-73
2022/07/19 06:01:19;;;;;;;12.73;4.47;;;21.50;99.90;;;;;;5013862;28;20454;-73
2022/07/19 06:03:47;;;;;;;8.03;4.67;;;21.60;99.90;;;;;;5002650;28;20869;-73
2022/07/19 06:06:15;;;;;;;12.20;4.40;;;21.80;99.90;;;;;;5002778;28;20464;-73
2022/07/19 06:08:42;;;;;;;7.90;3.73;;;22.10;99.90;;;;;;5013791;28;20450;-73
2022/07/19 06:11:09;;;;;;;14.47;3.83;;;22.20;99.90;;;;;;5013279;28;20488;-73
2022/07/19 06:13:37;;;;;;;9.10;4.03;;;22.50;99.90;;;;;;5013470;28;20450;-73
2022/07/19 06:16:05;;;;;;;5.80;3.77;;;22.70;99.90;;;;;;5013419;28;20477;-73
2022/07/19 06:18:34;;;;;;;6.13;3.53;;;22.90;99.90;;;;;;5013476;28;20985;-73
2022/07/19 06:21:01;;;;;;;10.83;4.03;;;23.00;99.90;;;;;;5013410;28;20458;-73
2022/07/19 06:23:27;;;;;;;6.13;4.23;;;23.10;99.90;;;;;;5012856;28;20504;-73
2022/07/19 06:25:54;;;;;;;7.20;4.17;;;23.20;99.90;;;;;;5013002;28;20568;-73
2022/07/19 06:28:21;;;;;;;4.00;3.57;;;23.40;99.40;;;;;;5013231;28;20454;-73
2022/07/19 06:30:49;;;;;;;8.90;4.07;;;23.60;99.20;;;;;;5013262;28;20520;-73
2022/07/19 06:33:15;;;;;;;4.50;3.20;;;23.70;98.90;;;;;;5012785;28;20513;-73
2022/07/19 06:35:42;;;;;;;13.27;3.40;;;24.00;99.30;;;;;;5013018;28;20950;-73
2022/07/19 06:38:08;;;;;;;11.30;3.33;;;24.20;99.00;;;;;;5012766;28;20456;-73
2022/07/19 06:40:35;;;;;;;5.13;3.60;;;24.50;98.80;;;;;;5013036;28;20434;-73
2022/07/19 06:43:02;;;;;;;5.23;3.30;;;24.70;98.80;;;;;;5012765;28;20504;-73
2022/07/19 06:45:28;;;;;;;5.97;3.43;;;25.00;98.60;;;;;;5012761;28;20458;-73
2022/07/19 06:47:56;;;;;;;8.23;3.10;;;25.20;98.20;;;;;;5012783;28;20910;-73
2022/07/19 06:50:23;;;;;;;6.23;3.30;;;25.40;97.30;;;;;;5012739;28;20442;-73
2022/07/19 06:52:50;;;;;;;6.10;3.77;;;25.70;96.90;;;;;;5012835;28;20458;-73
2022/07/19 06:55:17;;;;;;;6.33;3.60;;;25.90;96.60;;;;;;5012634;28;20450;-73
2022/07/19 06:57:43;;;;;;;7.93;3.20;;;26.00;96.40;;;;;;5012585;28;20535;-73
2022/07/19 07:00:12;;;;;;;13.30;3.87;;;26.20;96.00;;;;;;5012638;28;20458;-73
2022/07/19 07:02:39;;;;;;;4.97;3.20;;;26.30;96.00;;;;;;5011775;28;20446;-73
2022/07/19 07:05:09;;;;;;;7.03;3.47;;;26.50;95.80;;;;;;5012231;28;20458;-73
2022/07/19 07:07:36;;;;;;;10.73;3.53;;;26.70;95.10;;;;;;4992959;28;20490;-73
2022/07/19 07:10:04;;;;;;;7.37;3.30;;;26.90;94.00;;;;;;4993008;28;20451;-73
2022/07/19 07:12:31;;;;;;;8.30;3.20;;;26.90;92.80;;;;;;4992825;28;20459;-73
2022/07/19 07:14:57;;;;;;;10.23;3.70;;;26.90;92.90;;;;;;4992624;28;20447;-73
2022/07/19 07:17:24;;;;;;;7.03;3.37;;;27.10;91.90;;;;;;4992491;28;21086;-73
2022/07/19 07:19:50;;;;;;;5.00;3.00;;;27.20;92.40;;;;;;4992880;28;20455;-73
2022/07/19 07:22:19;;;;;;;6.23;2.73;;;27.40;92.60;;;;;;4992628;28;20510;-73
2022/07/19 07:24:45;;;;;;;3.87;2.80;;;27.60;90.50;;;;;;4992478;28;20463;-73
2022/07/19 07:27:12;;;;;;;7.93;3.03;;;27.70;90.60;;;;;;4992098;28;21061;-73
2022/07/19 07:29:39;;;;;;;13.67;2.77;;;27.90;90.30;;;;;;4992517;28;20455;-73
2022/07/19 07:32:06;;;;;;;7.30;2.73;;;28.00;88.60;;;;;;4992146;28;20825;-73
2022/07/19 07:34:33;;;;;;;6.00;3.00;;;28.00;87.60;;;;;;4992190;28;20459;-73
2022/07/19 07:37:00;;;;;;;13.17;2.70;;;28.10;88.80;;;;;;4992263;28;20467;-73
2022/07/19 07:39:28;;;;;;;12.23;4.00;;;28.30;88.50;;;;;;4992406;28;20447;-73
2022/07/19 07:41:54;;;;;;;6.90;3.13;;;28.70;88.00;;;;;;4991813;28;20509;-73
2022/07/19 07:44:21;;;;;;;8.10;2.63;;;28.90;88.10;;;;;;4991648;28;20927;-73
2022/07/19 07:46:47;;;;;;;15.10;2.87;;;29.10;84.50;;;;;;4992086;28;20491;-73
2022/07/19 07:49:14;;;;;;;8.87;2.30;;;29.30;83.70;;;;;;4992043;28;20455;-73
2022/07/19 07:51:41;;;;;;;4.63;2.63;;;29.40;82.60;;;;;;4991934;28;20825;-73
2022/07/19 07:54:07;;;;;;;13.23;2.60;;;29.60;81.30;;;;;;4991565;28;20877;-73
2022/07/19 07:56:36;;;;;;;3.73;2.90;;;29.50;82.60;;;;;;4991579;28;20483;-73
2022/07/19 07:59:02;;;;;;;8.70;3.40;;;29.40;81.40;;;;;;4991775;28;20848;-73
2022/07/19 08:01:29;;;;;;;8.60;2.90;;;29.20;82.30;;;;;;4991915;28;20435;-73
2022/07/19 08:03:56;;;;;;;11.30;3.10;;;29.10;82.00;;;;;;5003800;28;20476;-73
2022/07/19 08:06:23;;;;;;;9.30;3.00;;;29.20;82.50;;;;;;5011179;28;20482;-73
2022/07/19 08:08:49;;;;;;;11.60;2.60;;;29.40;81.20;;;;;;5011373;28;20446;-73
2022/07/19 08:11:16;;;;;;;12.77;2.37;;;29.60;81.70;;;;;;5011539;28;20462;-73
2022/07/19 08:13:44;;;;;;;10.80;3.10;;;29.80;79.60;;;;;;5011309;28;20508;-73
2022/07/19 08:16:11;;;;;;;5.07;2.30;;;29.90;79.10;;;;;;5015332;28;20478;-73
2022/07/19 08:18:37;;;;;;;2.90;2.50;;;30.10;78.60;;;;;;5015327;28;20466;-73
2022/07/19 08:21:04;;;;;;;2.70;2.37;;;30.20;77.30;;;;;;5015199;28;20450;-73
2022/07/19 08:23:31;;;;;;;6.27;2.50;;;30.30;76.20;;;;;;5014684;28;20500;-73
2022/07/19 08:25:57;;;;;;;3.33;2.20;;;30.40;76.50;;;;;;5014948;28;20513;-73
2022/07/19 08:28:24;;;;;;;7.27;2.77;;;30.60;76.10;;;;;;5015209;28;20500;-73
2022/07/19 08:30:52;;;;;;;7.37;2.37;;;30.70;75.30;;;;;;5015256;28;20477;-73
2022/07/19 08:33:19;;;;;;;4.10;2.93;;;31.00;75.10;;;;;;5014895;28;20528;-73
2022/07/19 08:35:45;;;;;;;5.30;2.07;;;31.30;76.60;;;;;;5014944;28;20861;-73
2022/07/19 08:38:12;;;;;;;3.10;2.27;;;31.40;74.70;;;;;;5014716;28;20458;-73
2022/07/19 08:40:42;;;;;;;6.13;2.20;;;31.50;74.10;;;;;;5015094;28;20454;-73
2022/07/19 08:43:10;;;;;;;5.73;2.40;;;31.70;73.90;;;;;;5014326;28;20461;-73
2022/07/19 08:45:37;;;;;;;6.37;2.63;;;31.70;73.10;;;;;;5014840;28;20461;-73
2022/07/19 08:48:07;;;;;;;8.63;2.27;;;31.70;73.10;;;;;;5014576;28;20517;-73
2022/07/19 08:50:34;;;;;;;3.77;2.87;;;31.80;73.30;;;;;;5014970;28;20450;-73
2022/07/19 08:53:02;;;;;;;14.23;2.50;;;31.90;73.00;;;;;;5014606;28;20511;-73
2022/07/19 08:55:29;;;;;;;8.10;2.50;;;32.00;72.30;;;;;;5014454;28;20450;-73
2022/07/19 08:57:57;;;;;;;3.73;2.17;;;32.20;70.20;;;;;;5014782;28;20438;-73
2022/07/19 09:00:24;;;;;;;3.73;2.27;;;32.50;70.40;;;;;;5014653;28;20441;-73
2022/07/19 09:02:56;;;;;;;5.07;2.30;;;32.70;69.60;;;;;;5014599;28;20500;-73
2022/07/19 09:05:24;;;;;;;3.53;2.10;;;32.80;68.60;;;;;;5014175;28;20520;-73
2022/07/19 09:08:09;;;;;;;4.17;2.00;;;32.70;67.10;;;;;;5014369;28;20486;-73
2022/07/19 09:10:37;;;;;;;5.33;2.50;;;32.60;67.10;;;;;;5014562;28;20504;-73
2022/07/19 09:13:06;;;;;;;3.30;1.93;;;32.80;68.70;;;;;;5014396;28;20461;-73
2022/07/19 09:15:45;;;;;;;3.00;2.10;;;32.90;66.90;;;;;;5014440;28;20450;-73
2022/07/19 09:18:15;;;;;;;7.40;2.23;;;33.10;65.90;;;;;;5014633;28;20538;-73
2022/07/19 09:20:44;;;;;;;5.20;2.10;;;33.30;66.20;;;;;;5014444;28;20458;-73
2022/07/19 09:23:12;;;;;;;2.80;2.00;;;33.30;66.20;;;;;;5014152;28;20442;-73
2022/07/19 09:25:41;;;;;;;4.13;2.17;;;33.40;66.70;;;;;;5013200;28;20462;-73
2022/07/19 09:28:08;;;;;;;4.57;1.97;;;33.40;65.40;;;;;;5014269;28;20868;-73
2022/07/19 09:30:37;;;;;;;4.40;2.03;;;33.30;65.00;;;;;;5014365;28;20524;-73
2022/07/19 09:33:13;;;;;;;2.87;2.40;;;33.30;66.20;;;;;;5014257;28;20493;-73
2022/07/19 09:35:43;;;;;;;11.77;3.00;;;33.50;65.30;;;;;;5014181;28;20449;-73
2022/07/19 09:38:21;;;;;;;5.17;2.50;;;33.70;65.30;;;;;;5014009;28;20506;-73
2022/07/19 09:40:49;;;;;;;7.30;2.20;;;33.60;65.20;;;;;;5014460;28;20516;-73
2022/07/19 09:43:16;;;;;;;2.50;2.17;;;33.50;65.60;;;;;;5013835;28;20450;-73
2022/07/19 09:45:44;;;;;;;3.17;2.30;;;33.50;66.00;;;;;;5014164;28;20458;-73
2022/07/19 09:48:11;;;;;;;5.27;2.47;;;33.70;66.50;;;;;;5013960;28;20478;-73
2022/07/19 09:50:38;;;;;;;13.57;2.30;;;33.90;64.00;;;;;;5014228;28;20454;-73
2022/07/19 09:53:07;;;;;;;11.50;1.87;;;34.00;63.50;;;;;;5014168;28;20460;-73
2022/07/19 09:55:34;;;;;;;5.40;2.10;;;33.90;64.20;;;;;;5013862;28;20450;-73
2022/07/19 09:58:03;;;;;;;4.60;1.73;;;34.00;65.20;;;;;;5014015;28;20450;-73
2022/07/19 10:00:29;;;;;;;5.83;2.10;;;34.20;62.30;;;;;;5013640;28;20545;-73
2022/07/19 10:02:58;;;;;;;3.13;1.97;;;34.10;62.50;;;;;;5013876;28;20450;-73
2022/07/19 10:05:25;;;;;;;4.03;1.87;;;34.10;63.30;;;;;;5013627;28;20508;-73
2022/07/19 10:07:52;;;;;;;4.80;2.33;;;34.20;62.40;;;;;;5013539;28;21002;-72
2022/07/19 10:10:22;;;;;;;7.10;2.33;;;34.40;63.10;;;;;;5013574;28;20521;-73
2022/07/19 10:12:52;;;;;;;2.73;2.10;;;34.30;62.30;;;;;;5013678;28;20481;-73
2022/07/19 10:15:20;;;;;;;6.50;2.57;;;34.30;62.40;;;;;;5013191;28;20454;-73
2022/07/19 10:18:01;;;;;;;5.30;2.27;;;34.50;62.90;;;;;;5013398;28;20986;-73
2022/07/19 10:20:30;;;;;;;5.30;2.40;;;34.40;62.70;;;;;;5013303;28;20501;-73
2022/07/19 10:22:59;;;;;;;4.10;2.27;;;34.50;62.90;;;;;;5013421;28;20512;-73
2022/07/19 10:25:38;;;;;;;4.80;2.33;;;34.60;64.10;;;;;;5013138;28;20512;-73
2022/07/19 10:28:05;;;;;;;6.27;2.50;;;34.80;62.40;;;;;;5013522;28;20482;-73
2022/07/19 10:30:41;;;;;;;3.50;2.57;;;34.60;62.00;;;;;;5013414;28;20540;-73
2022/07/19 10:33:28;;;;;;;4.10;2.53;;;34.60;62.90;;;;;;5013305;28;20520;-73
2022/07/19 10:35:55;;;;;;;3.87;2.33;;;34.50;61.70;;;;;;5012929;28;20474;-72
2022/07/19 10:38:22;;;;;;;4.00;2.30;;;34.50;62.20;;;;;;5013032;28;20513;-72
2022/07/19 10:40:51;;;;;;;6.70;2.50;;;34.40;62.70;;;;;;5013148;28;20496;-72
2022/07/19 10:43:20;;;;;;;9.70;2.87;;;34.60;62.70;;;;;;5012730;28;20442;-72
2022/07/19 10:46:08;;;;;;;4.87;2.77;;;34.90;62.00;;;;;;5012893;28;20524;-73
2022/07/19 10:48:37;;;;;;;3.33;2.20;;;35.00;61.70;;;;;;5013191;28;20533;-72
2022/07/19 10:51:04;;;;;;;3.93;2.60;;;34.90;60.80;;;;;;5012966;28;20446;-72
2022/07/19 10:53:59;;;;;;;3.87;2.40;;;34.80;60.50;;;;;;5012734;28;20954;-73
2022/07/19 10:56:34;;;;;;;3.03;2.70;;;35.00;60.40;;;;;;5012636;28;20532;-72
2022/07/19 10:59:02;;;;;;;3.03;2.83;;;34.90;59.70;;;;;;5013100;28;20452;-72
2022/07/19 11:01:32;;;;;;;3.37;2.67;;;35.10;60.30;;;;;;5012673;28;20873;-72
2022/07/19 11:04:31;;;;;;;6.93;2.63;;;35.00;59.30;;;;;;5012398;28;20457;-72
2022/07/19 11:07:16;;;;;;;17.43;2.93;;;34.90;59.80;;;;;;5012403;28;20486;-72
2022/07/19 11:09:45;;;;;;;4.13;2.50;;;34.90;60.70;;;;;;5012737;28;20516;-72
2022/07/19 11:12:31;;;;;;;16.47;3.27;;;34.80;61.40;;;;;;5012586;28;21006;-72
2022/07/19 11:15:00;;;;;;;7.43;2.93;;;34.90;60.90;;;;;;5012300;28;20454;-72
2022/07/19 11:17:26;;;;;;;5.60;2.73;;;35.00;60.60;;;;;;5012319;28;20520;-72
2022/07/19 11:20:09;;;;;;;9.63;2.80;;;35.30;60.60;;;;;;5012561;28;20480;-72
2022/07/19 11:22:39;;;;;;;4.03;2.77;;;35.40;59.70;;;;;;5012395;28;20484;-72
2022/07/19 11:25:07;;;;;;;4.33;2.50;;;35.60;60.50;;;;;;5011996;28;20466;-72
2022/07/19 11:27:35;;;;;;;5.87;3.00;;;35.40;58.90;;;;;;5012138;28;20503;-72
2022/07/19 11:30:04;;;;;;;3.73;2.60;;;35.50;58.50;;;;;;5012187;28;20878;-72
2022/07/19 11:32:31;;;;;;;5.27;2.93;;;35.60;59.50;;;;;;5012229;28;20512;-72
2022/07/19 11:35:00;;;;;;;3.30;2.40;;;35.40;59.80;;;;;;5012095;28;20452;-72
2022/07/19 11:37:28;;;;;;;4.03;2.67;;;35.20;59.50;;;;;;5012027;28;20958;-72
2022/07/19 11:39:57;;;;;;;5.33;2.80;;;35.40;59.80;;;;;;5012069;28;20446;-73
2022/07/19 11:42:31;;;;;;;5.53;2.70;;;35.50;59.30;;;;;;5011749;28;21157;-72
2022/07/19 11:45:00;;;;;;;4.30;2.70;;;35.40;59.20;;;;;;5011775;28;20977;-72
2022/07/19 11:47:27;;;;;;;6.40;2.73;;;35.20;59.30;;;;;;5011981;28;20478;-72
2022/07/19 11:49:54;;;;;;;8.90;2.50;;;35.30;59.70;;;;;;5011547;28;20513;-72
2022/07/19 11:52:21;;;;;;;5.73;2.67;;;35.60;59.30;;;;;;5011793;28;20457;-72
2022/07/19 11:55:00;;;;;;;6.43;2.80;;;35.70;58.50;;;;;;5011980;28;20454;-72
2022/07/19 11:57:27;;;;;;;13.07;4.80;;;36.00;58.50;;;;;;5011959;28;20470;-72
2022/07/19 11:59:54;;;;;;;5.97;3.20;;;36.20;58.10;;;;;;5011972;28;20453;-72
2022/07/19 12:02:22;;;;;;;5.73;2.60;;;36.10;57.90;;;;;;5011883;28;20512;-72
2022/07/19 12:04:49;;;;;;;7.60;2.60;;;36.00;58.60;;;;;;5011377;28;20868;-72
2022/07/19 12:07:18;;;;;;;6.50;2.70;;;36.00;58.00;;;;;;5011484;28;20998;-72
2022/07/19 12:09:46;;;;;;;4.70;2.90;;;36.10;57.90;;;;;;5011993;28;20474;-73
2022/07/19 12:12:14;;;;;;;9.87;3.27;;;36.50;59.00;;;;;;5011818;28;20453;-72
2022/07/19 12:14:41;;;;;;;7.90;2.90;;;36.70;56.40;;;;;;5011713;28;20465;-72
2022/07/19 12:17:13;;;;;;;4.93;2.73;;;36.90;57.00;;;;;;5011638;28;20532;-72
2022/07/19 12:19:43;;;;;;;2.93;2.40;;;37.00;56.20;;;;;;5011933;28;20450;-72
2022/07/19 12:22:29;;;;;;;3.93;3.00;;;37.00;55.30;;;;;;5011829;28;20477;-72
2022/07/19 12:24:56;;;;;;;4.40;2.83;;;37.10;55.90;;;;;;5011568;28;20462;-72
2022/07/19 12:27:27;;;;;;;3.10;2.40;;;37.20;54.90;;;;;;5011504;28;20512;-72
2022/07/19 12:29:55;;;;;;;7.70;2.50;;;37.20;55.40;;;;;;5011474;28;20460;-72
2022/07/19 12:32:28;;;;;;;8.40;2.27;;;37.00;55.00;;;;;;5011740;28;20504;-72
2022/07/19 12:34:59;;;;;;;2.50;2.30;;;36.70;54.50;;;;;;5011598;28;20876;-72
2022/07/19 12:37:28;;;;;;;6.13;3.10;;;36.70;54.70;;;;;;5011544;28;20846;-72
2022/07/19 12:40:06;;;;;;;4.93;3.40;;;36.80;55.10;;;;;;5011668;28;20446;-72
2022/07/19 12:42:38;;;;;;;10.60;3.70;;;36.90;55.50;;;;;;5011294;28;20958;-72
2022/07/19 12:45:06;;;;;;;3.70;2.70;;;37.20;54.80;;;;;;5011441;28;20508;-72
2022/07/19 12:47:33;;;;;;;8.13;3.87;;;37.30;54.40;;;;;;5011359;28;20517;-72
2022/07/19 12:50:01;;;;;;;2.93;2.60;;;37.20;53.90;;;;;;5011335;28;20454;-72